Argyle, IA

7:59 PM CDT on July 29, 2014 (GMT -0500)
KIADONNE3 Elev 700 ft | 40.63 °N, 91.60 °W | Change Station

Current weather conditions updated 28 seconds ago

Clear
Clear
71.8 °F
Feels Like 74 °F
N
0.0
Wind Variable Wind from NE
Gusts 0.0 mph

Tomorrow is forecast to be nearly the same temperature as today.

Today
High -- | Low -- °F
--% Chance of Precip.
Yesterday
High -- | Low -- °F
Precip. -- in
6:00 AM 8:24 PM
Waxing Crescent, 8% visible
Pressure 30.06 in
Visibility 10.0 miles
Clouds Clear
Heat Index 74 °F
Dew Point 62 °F
Humidity 72%
Rainfall 0.00 in
Snow Depth Not available.
UV 0 out of 12
Pollen 6.60 out of 12
Air Quality Not available.
Flu Activity Not available.
METAR KEOK 300035Z AUTO 00000KT 10SM CLR 23/17 A3006 RMK AO2

More Conditions Fewer Conditions

Pressure 30.06 in
Visibility 10.0 miles
Clouds Clear
Heat Index 74 °F
Dew Point 62 °F
Humidity 72%
Rainfall 0.00 in
Snow Depth Not available.
UV 0 out of 12
Pollen 6.60 out of 12
Air Quality Not available.
Flu Activity Not available.
METAR KEOK 300035Z AUTO 00000KT 10SM CLR 23/17 A3006 RMK AO2

More Conditions Fewer Conditions

10-Day Weather Forecast

Almanac

Astronomy

Jul. 29, 2014 Rise Set
Actual Time 6:00 AM CDT 8:24 PM CDT
Civil Twilight 5:29 AM CDT 8:55 PM CDT
Nautical Twilight 4:51 AM CDT 9:33 PM CDT
Astronomical Twilight 4:08 AM CDT 10:15 PM CDT
Moon 8:38 AM CDT (7/29) 9:36 PM CDT (7/29)
Length of Visible Light 15h 25m
Length of Day
14h 23m
Tomorrow will be 1m 57s shorter.
Waxing Crescent, 8% of the Moon is Illuminated
Today
Waxing Crescent
Aug 3
First Quarter
Aug 10
Full
Aug 17
Last Quarter
Aug 25
New

Today's Extremes

State Highs State Lows

Community

WunderPhotos

Upload Photos

1,738,924 photos uploaded!

Nearby

Snow Depth

Station Depth Elevation
No new snow has been reported.

Earthquake Activity

City Distance Mag. Time & Date
No recent earthquake activity has been reported nearby.
Minimum magnitude displayed is 2.5.

Coastal Water Temperatures

Place Temperature
No Stations Reporting

Nearby Weather Stations

Station Location Temp. Heat Index Dew Point Humidity Wind Precip. Elev Updated Type
Donnellson, IA 71.8 °F 74 °F 62 °F 72% NE  at  0.0 mph 0.00 in / hr 700 ft 7:58 PM CDT Rapid Fire
JEFFERSONVILLE, Donnellson, IA 71.6 °F 75 °F 61 °F 69% WNW  at  0.0 mph - / hr 653 ft 7:54 PM CDT Normal
Lang Enterprises, Donnellson, IA 72.8 °F 74 °F 64 °F 74% NW  at  1.0 mph 0.00 in / hr 689 ft 7:58 PM CDT Normal
River Bend Condos, Fort Madison, IA 77.0 °F 79 °F 62 °F 59% NNE  at  0.0 mph - / hr 535 ft 7:48 PM CDT Normal
KEOIA, Keokuk, IA 75.0 °F 77 °F 60 °F 59% WNW  at  0.0 mph 0.00 in / hr 629 ft 7:59 PM CDT Rapid Fire
Chem Gro Inc., Adrian, IL 72.9 °F 77 °F 57 °F 58% WNW  at  4.9 mph 0.00 in / hr 705 ft 7:59 PM CDT Rapid Fire

Show More Stations Show Fewer Stations